createdAt,value
2018-07-21T00:00:53.306Z,53.67
2018-07-21T00:01:53.301Z,53.60
2018-07-21T00:02:53.284Z,54.00
2018-07-21T00:03:53.273Z,53.90
2018-07-21T00:04:53.269Z,54.00
2018-07-21T00:05:53.250Z,53.60
2018-07-21T00:06:53.248Z,53.30
2018-07-21T00:07:53.226Z,53.20
2018-07-21T00:08:53.215Z,54.31
2018-07-21T00:09:53.215Z,54.10
2018-07-21T00:10:53.192Z,54.51
2018-07-21T00:11:53.182Z,54.13
2018-07-21T00:12:53.170Z,54.21
2018-07-21T00:13:53.168Z,54.31
2018-07-21T00:14:53.154Z,54.61
2018-07-21T00:15:53.138Z,54.31
2018-07-21T00:16:53.124Z,54.63
2018-07-21T00:17:53.135Z,54.51
2018-07-21T00:18:53.104Z,54.23
2018-07-21T00:19:53.120Z,54.21
2018-07-21T00:20:53.083Z,54.41
2018-07-21T00:21:53.072Z,54.21
2018-07-21T00:22:53.058Z,54.33
2018-07-21T00:23:53.044Z,54.33
2018-07-21T00:24:53.047Z,54.51
2018-07-21T00:25:53.022Z,54.43
2018-07-21T00:26:53.022Z,54.31
2018-07-21T00:27:53.003Z,54.53
2018-07-21T00:28:52.988Z,54.53
2018-07-21T00:29:52.988Z,54.43
2018-07-21T00:30:52.965Z,54.23
2018-07-21T00:31:52.955Z,54.53
2018-07-21T00:32:52.962Z,54.53
2018-07-21T00:33:52.933Z,54.23
2018-07-21T00:34:52.933Z,54.74
2018-07-21T00:35:59.949Z,54.83
2018-07-21T00:36:52.899Z,54.94
2018-07-21T00:37:52.888Z,55.07
2018-07-21T00:38:52.879Z,54.83
2018-07-21T00:39:52.881Z,54.96
2018-07-21T00:40:52.856Z,54.86
2018-07-21T00:41:52.843Z,54.63
2018-07-21T00:42:52.840Z,54.56
2018-07-21T00:43:52.821Z,54.66
2018-07-21T00:44:52.827Z,54.53
2018-07-21T00:45:52.809Z,54.76
2018-07-21T00:46:52.791Z,55.07
2018-07-21T00:47:52.777Z,54.66
2018-07-21T00:48:52.764Z,54.94
2018-07-21T00:49:52.763Z,54.76
2018-07-21T00:50:52.746Z,54.76
2018-07-21T00:51:52.733Z,54.86
2018-07-21T00:52:52.720Z,54.56
2018-07-21T00:53:52.708Z,54.66
2018-07-21T00:54:52.709Z,54.76
2018-07-21T00:55:52.689Z,55.47
2018-07-21T00:56:52.682Z,54.46
2018-07-21T00:57:52.672Z,55.47
2018-07-21T00:58:52.654Z,55.07
2018-07-21T00:59:52.651Z,55.49
2018-07-21T01:00:52.633Z,55.36
2018-07-21T01:01:52.618Z,55.09
2018-07-21T01:02:52.614Z,54.89
2018-07-21T01:03:52.596Z,55.80
2018-07-21T01:04:52.618Z,56.00
2018-07-21T01:05:52.572Z,55.90
2018-07-21T01:06:52.589Z,55.90
2018-07-21T01:07:52.551Z,56.00
2018-07-21T01:08:52.540Z,56.00
2018-07-21T01:09:52.538Z,56.00
2018-07-21T01:10:52.526Z,55.60
2018-07-21T01:11:52.508Z,56.00
2018-07-21T01:12:52.493Z,55.80
2018-07-21T01:13:52.486Z,55.90
2018-07-21T01:14:52.478Z,55.80
2018-07-21T01:15:52.481Z,56.00
2018-07-21T01:16:52.452Z,56.10
2018-07-21T01:17:52.438Z,56.00
2018-07-21T01:18:52.428Z,56.00
2018-07-21T01:19:52.416Z,55.80
2018-07-21T01:20:52.417Z,55.62
2018-07-21T01:21:52.405Z,55.73
2018-07-21T01:22:52.384Z,56.13
2018-07-21T01:23:52.373Z,55.93
2018-07-21T01:24:52.364Z,56.13
2018-07-21T01:25:52.359Z,55.82
2018-07-21T01:26:52.347Z,55.93
2018-07-21T01:27:52.335Z,55.85
2018-07-21T01:28:52.317Z,56.43
2018-07-21T01:29:52.307Z,56.15
2018-07-21T01:30:52.309Z,56.46
2018-07-21T01:31:52.285Z,56.05
2018-07-21T01:32:52.271Z,56.05
2018-07-21T01:33:52.272Z,56.66
2018-07-21T01:34:52.249Z,56.66
2018-07-21T01:35:52.249Z,56.15
2018-07-21T01:36:52.231Z,56.66
2018-07-21T01:37:52.217Z,56.15
2018-07-21T01:38:52.206Z,56.56
2018-07-21T01:39:52.204Z,56.46
2018-07-21T01:40:52.195Z,56.66
2018-07-21T01:41:52.175Z,56.15
2018-07-21T01:42:52.162Z,56.56
2018-07-21T01:43:52.153Z,56.66
2018-07-21T01:44:52.140Z,56.59
2018-07-21T01:45:52.146Z,56.26
2018-07-21T01:46:52.123Z,56.38
2018-07-21T01:47:52.105Z,56.48
2018-07-21T01:48:52.094Z,56.38
2018-07-21T01:49:52.085Z,56.59
2018-07-21T01:50:52.088Z,56.69
2018-07-21T01:51:52.069Z,56.59
2018-07-21T01:52:52.053Z,56.99
2018-07-21T01:53:52.040Z,56.79
2018-07-21T01:54:52.027Z,56.99
2018-07-21T01:55:52.028Z,56.89
2018-07-21T01:56:52.007Z,56.79
2018-07-21T01:57:52.000Z,57.09
2018-07-21T01:58:51.984Z,57.20
2018-07-21T01:59:51.970Z,57.20
2018-07-21T02:00:51.975Z,57.29
2018-07-21T02:01:51.952Z,57.20
2018-07-21T02:02:51.940Z,57.20
2018-07-21T02:03:51.933Z,57.29
2018-07-21T02:04:51.918Z,57.20
2018-07-21T02:05:51.913Z,57.29
2018-07-21T02:06:51.900Z,57.20
2018-07-21T02:07:51.885Z,57.20
2018-07-21T02:08:51.870Z,57.20
2018-07-21T02:09:51.868Z,57.40
2018-07-21T02:10:51.864Z,57.20
2018-07-21T02:11:51.838Z,57.29
2018-07-21T02:12:51.828Z,57.20
2018-07-21T02:13:52.597Z,57.20
2018-07-21T02:14:51.806Z,57.53
2018-07-21T02:15:51.815Z,57.40
2018-07-21T02:16:51.783Z,57.53
2018-07-21T02:17:51.772Z,57.40
2018-07-21T02:18:51.759Z,57.29
2018-07-21T02:19:51.751Z,57.53
2018-07-21T02:20:51.750Z,57.62
2018-07-21T02:21:51.740Z,57.20
2018-07-21T02:22:51.719Z,57.93
2018-07-21T02:23:51.744Z,57.22
2018-07-21T02:24:51.697Z,57.32
2018-07-21T02:25:51.697Z,57.62
2018-07-21T02:26:51.671Z,57.53
2018-07-21T02:27:51.680Z,57.22
2018-07-21T02:28:51.648Z,57.32
2018-07-21T02:29:51.636Z,57.53
2018-07-21T02:30:51.639Z,57.53
2018-07-21T02:31:51.618Z,57.45
2018-07-21T02:32:51.603Z,57.86
2018-07-21T02:33:51.600Z,57.73
2018-07-21T02:34:51.582Z,57.62
2018-07-21T02:35:51.597Z,58.16
2018-07-21T02:36:51.561Z,57.96
2018-07-21T02:37:51.550Z,57.73
2018-07-21T02:38:51.536Z,58.06
2018-07-21T02:39:51.535Z,58.06
2018-07-21T02:40:51.515Z,57.96
2018-07-21T02:41:51.516Z,57.96
2018-07-21T02:42:51.492Z,57.75
2018-07-21T02:43:51.483Z,57.62
2018-07-21T02:44:51.477Z,57.86
2018-07-21T02:45:51.466Z,57.96
2018-07-21T02:46:51.461Z,58.16
2018-07-21T02:47:51.489Z,58.16
2018-07-21T02:48:51.428Z,58.16
2018-07-21T02:49:51.418Z,58.26
2018-07-21T02:50:51.403Z,57.96
2018-07-21T02:51:51.413Z,58.16
2018-07-21T02:52:51.380Z,58.26
2018-07-21T02:53:51.369Z,57.75
2018-07-21T02:54:51.362Z,57.96
2018-07-21T02:55:51.346Z,57.86
2018-07-21T02:56:51.357Z,57.96
2018-07-21T02:57:51.330Z,58.26
2018-07-21T02:58:51.314Z,58.06
2018-07-21T02:59:51.303Z,58.06
2018-07-21T03:00:51.295Z,58.18
2018-07-21T03:01:51.293Z,58.67
2018-07-21T03:02:51.268Z,58.09
2018-07-21T03:03:51.269Z,58.80
2018-07-21T03:04:51.248Z,58.80
2018-07-21T03:05:51.237Z,58.69
2018-07-21T03:06:51.243Z,58.49
2018-07-21T03:07:51.214Z,58.18
2018-07-21T03:08:51.203Z,58.59
2018-07-21T03:09:51.247Z,58.09
2018-07-21T03:10:51.192Z,58.09
2018-07-21T03:11:51.181Z,58.09
2018-07-21T03:12:51.162Z,58.29
2018-07-21T03:13:51.149Z,58.49
2018-07-21T03:14:51.139Z,58.09
2018-07-21T03:15:51.141Z,58.80
2018-07-21T03:16:51.125Z,58.80
2018-07-21T03:17:51.104Z,59.20
2018-07-21T03:18:51.091Z,59.10
2018-07-21T03:19:51.088Z,58.69
2018-07-21T03:20:51.071Z,58.76
2018-07-21T03:21:51.076Z,58.80
2018-07-21T03:22:51.045Z,58.80
2018-07-21T03:23:51.036Z,59.00
2018-07-21T03:24:51.023Z,59.10
2018-07-21T03:25:51.014Z,59.41
2018-07-21T03:26:51.021Z,58.90
2018-07-21T03:27:50.999Z,58.80
2018-07-21T03:28:50.979Z,58.80
2018-07-21T03:29:50.969Z,59.00
2018-07-21T03:30:50.993Z,59.10
2018-07-21T03:31:50.956Z,58.90
2018-07-21T03:32:50.936Z,58.80
2018-07-21T03:33:50.930Z,59.20
2018-07-21T03:34:50.913Z,59.00
2018-07-21T03:35:50.904Z,59.50
2018-07-21T03:36:50.900Z,59.41
2018-07-21T03:37:50.880Z,59.81
2018-07-21T03:38:50.867Z,59.70
2018-07-21T03:39:50.863Z,59.61
2018-07-21T03:40:50.864Z,60.01
2018-07-21T03:41:50.847Z,59.81
2018-07-21T03:42:50.825Z,59.70
2018-07-21T03:43:50.812Z,59.61
2018-07-21T03:44:50.803Z,59.61
2018-07-21T03:45:50.795Z,60.01
2018-07-21T03:46:50.790Z,60.01
2018-07-21T03:47:50.769Z,59.70
2018-07-21T03:48:50.756Z,60.01
2018-07-21T03:49:50.749Z,59.70
2018-07-21T03:50:50.733Z,60.31
2018-07-21T03:51:50.744Z,59.78
2018-07-21T03:52:50.713Z,59.81
2018-07-21T03:53:50.702Z,59.91
2018-07-21T03:54:50.690Z,59.58
2018-07-21T03:55:50.679Z,59.38
2018-07-21T03:56:50.677Z,59.48
2018-07-21T03:57:50.665Z,59.78
2018-07-21T03:58:50.647Z,59.68
2018-07-21T03:59:50.633Z,59.88
2018-07-21T04:00:50.621Z,59.38
2018-07-21T04:01:50.622Z,59.48
2018-07-21T04:02:50.601Z,59.58
2018-07-21T04:03:50.594Z,59.78
2018-07-21T04:04:50.579Z,59.58
2018-07-21T04:05:50.565Z,59.78
2018-07-21T04:06:50.568Z,59.68
2018-07-21T04:07:50.544Z,59.48
2018-07-21T04:08:50.556Z,59.99
2018-07-21T04:09:50.531Z,59.88
2018-07-21T04:10:50.514Z,59.88
2018-07-21T04:11:50.527Z,59.78
2018-07-21T04:12:50.487Z,59.68
2018-07-21T04:13:50.478Z,59.75
2018-07-21T04:14:50.469Z,59.65
2018-07-21T04:15:50.460Z,59.75
2018-07-21T04:16:50.443Z,59.75
2018-07-21T04:17:50.444Z,60.06
2018-07-21T04:18:50.420Z,59.65
2018-07-21T04:19:50.416Z,59.65
2018-07-21T04:20:50.399Z,59.65
2018-07-21T04:21:50.396Z,59.75
2018-07-21T04:22:50.388Z,59.52
2018-07-21T04:23:50.365Z,59.83
2018-07-21T04:24:50.357Z,59.72
2018-07-21T04:25:50.345Z,59.72
2018-07-21T04:26:50.333Z,60.00
2018-07-21T04:27:50.338Z,59.42
2018-07-21T04:28:50.313Z,59.59
2018-07-21T04:29:50.299Z,59.80
2018-07-21T04:30:50.290Z,59.80
2018-07-21T04:31:50.277Z,60.20
2018-07-21T04:32:50.282Z,60.00
2018-07-21T04:33:50.263Z,59.70
2018-07-21T04:34:50.244Z,59.59
2018-07-21T04:35:50.232Z,59.59
2018-07-21T04:36:50.228Z,59.77
2018-07-21T04:37:50.223Z,59.67
2018-07-21T04:38:50.205Z,59.87
2018-07-21T04:39:50.191Z,59.84
2018-07-21T04:40:50.175Z,59.56
2018-07-21T04:41:50.164Z,59.74
2018-07-21T04:42:50.165Z,59.54
2018-07-21T04:43:50.145Z,59.74
2018-07-21T04:44:50.132Z,59.34
2018-07-21T04:45:50.130Z,59.51
2018-07-21T04:46:50.109Z,59.51
2018-07-21T04:47:50.112Z,59.41
2018-07-21T04:48:50.086Z,59.81
2018-07-21T04:49:50.075Z,59.28
2018-07-21T04:50:50.065Z,59.48
2018-07-21T04:51:50.058Z,59.48
2018-07-21T04:52:50.059Z,59.58
2018-07-21T04:53:50.037Z,59.38
2018-07-21T04:54:50.022Z,59.35
2018-07-21T04:55:50.013Z,59.48
2018-07-21T04:56:49.997Z,59.56
2018-07-21T04:57:50.003Z,59.35
2018-07-21T04:58:49.974Z,59.45
2018-07-21T04:59:49.965Z,59.56
2018-07-21T05:00:50.106Z,59.53
2018-07-21T05:01:49.940Z,59.53
2018-07-21T05:02:49.938Z,59.33
2018-07-21T05:03:49.929Z,59.33
2018-07-21T05:04:49.905Z,58.59
2018-07-21T05:05:49.893Z,58.80
2018-07-21T05:06:49.884Z,59.00
2018-07-21T05:07:49.887Z,58.39
2018-07-21T05:08:49.868Z,58.56
2018-07-21T05:09:49.859Z,58.56
2018-07-21T05:10:49.838Z,58.76
2018-07-21T05:11:49.826Z,58.34
2018-07-21T05:12:49.830Z,58.67
2018-07-21T05:13:49.807Z,58.23
2018-07-21T05:14:49.798Z,58.34
2018-07-21T05:15:49.792Z,57.93
2018-07-21T05:16:49.776Z,58.03
2018-07-21T05:17:49.774Z,58.11
2018-07-21T05:18:49.752Z,58.41
2018-07-21T05:19:49.740Z,57.78
2018-07-21T05:20:49.733Z,57.37
2018-07-21T05:21:49.724Z,57.57
2018-07-21T05:22:49.718Z,57.48
2018-07-21T05:23:49.697Z,57.28
2018-07-21T05:24:49.685Z,57.65
2018-07-21T05:25:49.673Z,57.55
2018-07-21T05:26:49.660Z,57.52
2018-07-21T05:27:49.665Z,57.52
2018-07-21T05:28:49.639Z,57.22
2018-07-21T05:29:49.628Z,57.29
2018-07-21T05:30:49.616Z,56.79
2018-07-21T05:31:49.604Z,56.66
2018-07-21T05:32:49.606Z,56.36
2018-07-21T05:33:49.588Z,55.83
2018-07-21T05:34:49.572Z,56.13
2018-07-21T05:35:49.559Z,55.51
2018-07-21T05:36:49.555Z,55.71
2018-07-21T05:37:49.550Z,55.15
2018-07-21T05:38:49.532Z,55.05
2018-07-21T05:39:49.523Z,55.05
2018-07-21T05:40:49.504Z,54.43
2018-07-21T05:41:49.492Z,54.70
2018-07-21T05:42:49.498Z,54.17
2018-07-21T05:43:49.472Z,53.57
2018-07-21T05:44:49.465Z,53.07
2018-07-21T05:45:49.457Z,52.84
2018-07-21T05:46:49.448Z,52.82
2018-07-21T05:47:49.437Z,52.72
2018-07-21T05:48:49.419Z,51.92
2018-07-21T05:49:49.408Z,51.89
2018-07-21T05:50:49.395Z,51.29
2018-07-21T05:51:49.386Z,51.67
2018-07-21T05:52:49.399Z,50.67
2018-07-21T05:53:49.361Z,50.84
2018-07-21T05:54:49.352Z,50.95
2018-07-21T05:55:49.338Z,51.02
2018-07-21T05:56:49.329Z,50.60
2018-07-21T05:57:49.323Z,50.20
2018-07-21T05:58:49.318Z,49.70
2018-07-21T05:59:49.295Z,49.57
2018-07-21T06:00:49.281Z,49.08
2018-07-21T06:01:49.271Z,48.97
2018-07-21T06:02:49.387Z,48.75
2018-07-21T06:03:49.267Z,49.35
2018-07-21T06:04:49.240Z,48.85
2018-07-21T06:05:49.229Z,47.93
2018-07-21T06:06:49.217Z,48.83
2018-07-21T06:07:49.206Z,48.73
2018-07-21T06:08:49.209Z,48.23
2018-07-21T06:09:49.189Z,48.83
2018-07-21T06:10:49.173Z,47.93
2018-07-21T06:11:49.162Z,47.74
2018-07-21T06:12:49.151Z,47.74
2018-07-21T06:13:49.153Z,47.83
2018-07-21T06:14:49.129Z,47.74
2018-07-21T06:15:49.124Z,47.74
2018-07-21T06:16:49.107Z,47.71
2018-07-21T06:17:49.097Z,47.71
2018-07-21T06:18:49.102Z,47.21
2018-07-21T06:19:49.073Z,47.51
2018-07-21T06:20:49.061Z,47.41
2018-07-21T06:21:49.061Z,47.41
2018-07-21T06:22:49.040Z,47.02
2018-07-21T06:23:49.090Z,46.99
2018-07-21T06:24:49.019Z,46.31
2018-07-21T06:25:49.006Z,46.99
2018-07-21T06:26:48.993Z,46.69
2018-07-21T06:27:48.994Z,46.00
2018-07-21T06:28:48.984Z,45.90
2018-07-21T06:29:48.960Z,46.09
2018-07-21T06:30:48.949Z,45.28
2018-07-21T06:31:48.938Z,45.78
2018-07-21T06:32:48.971Z,45.36
2018-07-21T06:33:48.933Z,45.45
2018-07-21T06:34:48.908Z,44.54
2018-07-21T06:35:55.938Z,44.84
2018-07-21T06:36:48.884Z,44.71
2018-07-21T06:37:48.872Z,44.92
2018-07-21T06:38:48.869Z,43.72
2018-07-21T06:39:48.844Z,43.80
2018-07-21T06:40:48.834Z,44.37
2018-07-21T06:41:48.832Z,43.08
2018-07-21T06:42:48.816Z,42.88
2018-07-21T06:43:48.817Z,43.16
2018-07-21T06:44:48.798Z,42.17
2018-07-21T06:45:48.785Z,41.97
2018-07-21T06:46:48.768Z,41.87
2018-07-21T06:47:48.761Z,42.27
2018-07-21T06:48:48.759Z,42.15
2018-07-21T06:49:48.750Z,42.35
2018-07-21T06:50:48.727Z,41.66
2018-07-21T06:51:48.726Z,41.83
2018-07-21T06:52:48.704Z,41.73
2018-07-21T06:53:48.706Z,41.24
2018-07-21T06:54:48.687Z,40.55
2018-07-21T06:55:48.674Z,40.36
2018-07-21T06:56:48.658Z,40.17
2018-07-21T06:57:48.654Z,39.47
2018-07-21T06:58:48.665Z,39.49
2018-07-21T06:59:48.627Z,39.39
2018-07-21T07:00:48.617Z,39.59
2018-07-21T07:01:48.610Z,39.90
2018-07-21T07:02:48.606Z,40.41
2018-07-21T07:03:48.591Z,39.92
2018-07-21T07:04:48.582Z,40.41
2018-07-21T07:05:48.565Z,39.63
2018-07-21T07:06:48.561Z,39.92
2018-07-21T07:07:48.541Z,41.12
2018-07-21T07:08:48.533Z,40.52
2018-07-21T07:09:48.514Z,40.92
2018-07-21T07:10:48.508Z,41.31
2018-07-21T07:11:48.492Z,40.72
2018-07-21T07:12:48.492Z,40.92
2018-07-21T07:13:48.482Z,40.62
2018-07-21T07:14:48.458Z,41.12
2018-07-21T07:15:48.454Z,41.22
2018-07-21T07:16:48.436Z,41.31
2018-07-21T07:17:48.467Z,41.42
2018-07-21T07:18:48.424Z,40.01
2018-07-21T07:19:48.409Z,39.71
2018-07-21T07:20:48.403Z,39.73
2018-07-21T07:21:48.384Z,39.81
2018-07-21T07:22:48.371Z,39.81
2018-07-21T07:23:48.384Z,40.01
2018-07-21T07:24:48.352Z,40.01
2018-07-21T07:25:48.343Z,40.41
2018-07-21T07:26:48.327Z,39.71
2018-07-21T07:27:48.314Z,39.81
2018-07-21T07:28:48.344Z,39.92
2018-07-21T07:29:48.296Z,39.90
2018-07-21T07:30:48.281Z,39.71
2018-07-21T07:31:48.271Z,39.71
2018-07-21T07:32:48.262Z,39.71
2018-07-21T07:33:48.249Z,39.51
2018-07-21T07:34:48.267Z,39.61
2018-07-21T07:35:48.227Z,39.90
2018-07-21T07:36:48.216Z,40.20
2018-07-21T07:37:48.207Z,40.41
2018-07-21T07:38:48.199Z,40.11
2018-07-21T07:39:48.199Z,39.90
2018-07-21T07:40:48.171Z,39.90
2018-07-21T07:41:48.168Z,40.20
2018-07-21T07:42:48.149Z,39.61
2018-07-21T07:43:48.139Z,40.01
2018-07-21T07:44:48.142Z,40.30
2018-07-21T07:45:48.117Z,40.19
2018-07-21T07:46:48.111Z,40.09
2018-07-21T07:47:48.102Z,39.79
2018-07-21T07:48:48.086Z,39.29
2018-07-21T07:49:48.081Z,38.98
2018-07-21T07:50:48.062Z,39.17
2018-07-21T07:51:48.049Z,38.58
2018-07-21T07:52:48.038Z,38.48
2018-07-21T07:53:48.036Z,38.66
2018-07-21T07:54:48.035Z,37.96
2018-07-21T07:55:48.005Z,38.17
2018-07-21T07:56:47.996Z,37.47
2018-07-21T07:57:47.983Z,37.77
2018-07-21T07:58:47.973Z,37.37
2018-07-21T07:59:47.970Z,37.85
2018-07-21T08:00:47.960Z,37.65
2018-07-21T08:01:47.939Z,36.96
2018-07-21T08:02:47.931Z,37.65
2018-07-21T08:03:47.919Z,37.53
2018-07-21T08:04:47.923Z,36.94
2018-07-21T08:05:47.893Z,37.24
2018-07-21T08:06:47.888Z,36.84
2018-07-21T08:07:47.872Z,37.04
2018-07-21T08:08:47.865Z,36.15
2018-07-21T08:09:47.866Z,36.23
2018-07-21T08:10:47.843Z,36.23
2018-07-21T08:11:47.830Z,36.52
2018-07-21T08:12:47.820Z,36.23
2018-07-21T08:13:47.820Z,35.52
2018-07-21T08:14:47.811Z,35.82
2018-07-21T08:15:47.790Z,35.42
2018-07-21T08:16:47.788Z,35.50
2018-07-21T08:17:47.765Z,35.09
2018-07-21T08:18:47.769Z,34.88
2018-07-21T08:19:47.758Z,34.97
2018-07-21T08:20:47.732Z,34.17
2018-07-21T08:21:47.719Z,34.56
2018-07-21T08:22:47.706Z,34.06
2018-07-21T08:23:47.695Z,33.87
2018-07-21T08:24:47.696Z,33.47
2018-07-21T08:25:47.684Z,33.37
2018-07-21T08:26:47.663Z,33.58
2018-07-21T08:27:47.653Z,33.47
2018-07-21T08:28:47.650Z,33.77
2018-07-21T08:29:47.643Z,33.77
2018-07-21T08:30:47.619Z,33.97
2018-07-21T08:31:47.619Z,33.49
2018-07-21T08:32:47.604Z,33.79
2018-07-21T08:33:47.584Z,33.39
2018-07-21T08:34:47.584Z,33.59
2018-07-21T08:35:47.576Z,33.29
2018-07-21T08:36:47.553Z,33.70
2018-07-21T08:37:47.538Z,33.90
2018-07-21T08:38:47.542Z,33.61
2018-07-21T08:39:47.529Z,33.41
2018-07-21T08:40:47.517Z,34.10
2018-07-21T08:41:47.494Z,33.51
2018-07-21T08:42:47.487Z,33.70
2018-07-21T08:43:47.474Z,34.41
2018-07-21T08:44:47.508Z,34.59
2018-07-21T08:45:47.456Z,33.90
2018-07-21T08:46:47.438Z,33.70
2018-07-21T08:47:47.435Z,33.82
2018-07-21T08:48:47.417Z,33.70
2018-07-21T08:49:47.491Z,34.10
2018-07-21T08:50:47.402Z,34.10
2018-07-21T08:51:47.384Z,33.80
2018-07-21T08:52:47.371Z,34.20
2018-07-21T08:53:47.363Z,33.70
2018-07-21T08:54:47.372Z,33.31
2018-07-21T08:55:47.363Z,34.10
2018-07-21T08:56:47.334Z,33.41
2018-07-21T08:57:47.319Z,34.00
2018-07-21T08:58:47.306Z,34.20
2018-07-21T08:59:47.295Z,33.61
2018-07-21T09:00:47.294Z,33.80
2018-07-21T09:01:47.273Z,33.31
2018-07-21T09:02:47.268Z,33.80
2018-07-21T09:03:47.254Z,33.90
2018-07-21T09:04:47.242Z,33.80
2018-07-21T09:05:47.294Z,33.61
2018-07-21T09:06:47.220Z,33.70
2018-07-21T09:07:47.219Z,33.51
2018-07-21T09:08:47.192Z,33.70
2018-07-21T09:09:47.185Z,33.52
2018-07-21T09:10:47.191Z,33.51
2018-07-21T09:11:47.161Z,33.61
2018-07-21T09:12:47.148Z,33.61
2018-07-21T09:13:47.145Z,33.70
2018-07-21T09:14:47.128Z,33.61
2018-07-21T09:15:47.139Z,33.61
2018-07-21T09:16:47.107Z,34.10
2018-07-21T09:17:47.093Z,33.51
2018-07-21T09:18:47.084Z,33.90
2018-07-21T09:19:47.072Z,33.70
2018-07-21T09:20:47.069Z,34.00
2018-07-21T09:21:47.050Z,33.80
2018-07-21T09:22:47.046Z,34.00
2018-07-21T09:23:47.027Z,34.20
2018-07-21T09:24:47.020Z,33.69
2018-07-21T09:25:47.035Z,33.31
2018-07-21T09:26:46.998Z,32.92
2018-07-21T09:27:46.984Z,33.21
2018-07-21T09:28:46.984Z,33.39
2018-07-21T09:29:46.963Z,32.31
2018-07-21T09:30:46.962Z,32.50
2018-07-21T09:31:46.942Z,32.50
2018-07-21T09:32:46.938Z,32.90
2018-07-21T09:33:46.918Z,32.90
2018-07-21T09:34:46.911Z,32.59
2018-07-21T09:35:46.921Z,32.78
2018-07-21T09:36:46.884Z,31.20
2018-07-21T09:37:46.874Z,29.92
2018-07-21T09:38:46.865Z,30.91
2018-07-21T09:39:46.854Z,31.62
2018-07-21T09:40:46.876Z,31.12
2018-07-21T09:41:46.850Z,31.43
2018-07-21T09:42:46.817Z,33.89
2018-07-21T09:43:46.811Z,34.00
2018-07-21T09:44:46.797Z,34.40
2018-07-21T09:45:46.851Z,34.71
2018-07-21T09:46:46.776Z,34.20
2018-07-21T09:47:46.777Z,33.80
2018-07-21T09:48:46.751Z,33.37
2018-07-21T09:49:46.750Z,33.06
2018-07-21T09:50:46.755Z,32.65
2018-07-21T09:51:46.718Z,33.94
2018-07-21T09:52:46.713Z,32.56
2018-07-21T09:53:46.694Z,32.25
2018-07-21T09:54:46.685Z,32.81
2018-07-21T09:55:46.778Z,32.50
2018-07-21T09:56:46.662Z,32.52
2018-07-21T09:57:46.653Z,32.45
2018-07-21T09:58:46.641Z,32.07
2018-07-21T09:59:46.629Z,32.07
2018-07-21T10:00:46.634Z,32.15
2018-07-21T10:01:46.607Z,32.03
2018-07-21T10:02:46.602Z,31.02
2018-07-21T10:03:46.589Z,30.41
2018-07-21T10:04:46.645Z,31.81
2018-07-21T10:05:46.608Z,31.20
2018-07-21T10:06:46.559Z,29.25
2018-07-21T10:07:46.545Z,28.11
2018-07-21T10:08:46.533Z,28.02
2018-07-21T10:09:46.522Z,28.69
2018-07-21T10:10:46.516Z,28.00
2018-07-21T10:11:46.500Z,26.68
2018-07-21T10:12:46.494Z,26.69
2018-07-21T10:13:46.477Z,26.38
2018-07-21T10:14:46.471Z,26.44
2018-07-21T10:15:46.460Z,26.04
2018-07-21T10:16:46.448Z,24.12
2018-07-21T10:17:46.439Z,25.60
2018-07-21T10:18:46.420Z,26.71
2018-07-21T10:19:46.409Z,26.17
2018-07-21T10:20:46.420Z,27.49
2018-07-21T10:21:46.415Z,28.02
2018-07-21T10:22:46.397Z,29.24
2018-07-21T10:23:46.365Z,29.44
2018-07-21T10:24:46.358Z,28.24
2018-07-21T10:25:46.350Z,26.86
2018-07-21T10:26:46.354Z,24.32
2018-07-21T10:27:46.323Z,23.91
2018-07-21T10:28:46.311Z,22.67
2018-07-21T10:29:46.305Z,19.79
2018-07-21T10:30:46.302Z,20.84
2018-07-21T10:31:46.296Z,20.45
2018-07-21T10:32:46.271Z,21.77
2018-07-21T10:33:46.265Z,21.91
2018-07-21T10:34:46.252Z,22.91
2018-07-21T10:35:46.237Z,23.12
2018-07-21T10:36:46.237Z,22.31
2018-07-21T10:37:46.224Z,21.37
2018-07-21T10:38:46.213Z,20.70
2018-07-21T10:39:46.196Z,21.37
2018-07-21T10:40:46.185Z,21.02
2018-07-21T10:41:46.187Z,21.37
2018-07-21T10:42:46.165Z,21.16
2018-07-21T10:43:46.154Z,20.57
2018-07-21T10:44:46.183Z,19.46
2018-07-21T10:45:46.141Z,21.41
2018-07-21T10:46:46.142Z,21.71
2018-07-21T10:47:46.111Z,21.02
2018-07-21T10:48:46.106Z,21.68
2018-07-21T10:49:46.089Z,20.26
2018-07-21T10:50:46.101Z,17.67
2018-07-21T10:51:46.080Z,17.27
2018-07-21T10:52:46.057Z,17.33
2018-07-21T10:53:46.058Z,18.55
2018-07-21T10:54:46.039Z,18.57
2018-07-21T10:55:46.024Z,18.68
2018-07-21T10:56:46.033Z,19.75
2018-07-21T10:57:46.010Z,18.06
2018-07-21T10:58:46.000Z,17.98
2018-07-21T10:59:45.987Z,16.54
2018-07-21T11:00:45.979Z,16.14
2018-07-21T11:01:45.987Z,17.81
2018-07-21T11:02:45.959Z,20.09
2018-07-21T11:03:45.944Z,18.97
2018-07-21T11:04:45.936Z,20.34
2018-07-21T11:05:45.930Z,20.16
2018-07-21T11:06:45.960Z,19.57
2018-07-21T11:07:45.909Z,19.35
2018-07-21T11:08:45.901Z,19.35
2018-07-21T11:09:45.882Z,19.58
2018-07-21T11:10:45.872Z,19.58
2018-07-21T11:11:45.885Z,20.39
2018-07-21T11:12:45.859Z,21.92
2018-07-21T11:13:45.858Z,23.75
2018-07-21T11:14:45.846Z,24.46
2018-07-21T11:15:45.818Z,25.57
2018-07-21T11:16:45.818Z,24.68
2018-07-21T11:17:45.800Z,25.68
2018-07-21T11:18:45.791Z,25.76
2018-07-21T11:19:45.775Z,25.55
2018-07-21T11:20:45.767Z,25.33
2018-07-21T11:21:45.772Z,25.35
2018-07-21T11:22:45.746Z,24.90
2018-07-21T11:23:45.730Z,27.99
2018-07-21T11:24:45.720Z,29.10
2018-07-21T11:25:45.710Z,28.19
2018-07-21T11:26:45.710Z,27.88
2018-07-21T11:27:45.687Z,26.68
2018-07-21T11:28:45.873Z,26.56
2018-07-21T11:29:45.665Z,26.37
2018-07-21T11:30:45.658Z,26.16
2018-07-21T11:31:45.652Z,26.06
2018-07-21T11:32:45.631Z,26.45
2018-07-21T11:33:45.623Z,26.25
2018-07-21T11:34:45.702Z,26.73
2018-07-21T11:35:45.799Z,26.34
2018-07-21T11:36:45.667Z,26.64
2018-07-21T11:37:45.578Z,26.64
2018-07-21T11:38:45.573Z,26.62
2018-07-21T11:39:45.559Z,26.43
2018-07-21T11:40:45.548Z,25.94
2018-07-21T11:41:45.543Z,26.14
2018-07-21T11:42:45.544Z,26.62
2018-07-21T11:43:45.853Z,26.04
2018-07-21T11:44:45.503Z,26.33
2018-07-21T11:45:45.502Z,26.53
2018-07-21T11:46:45.490Z,26.62
2018-07-21T11:47:45.469Z,26.53
2018-07-21T11:48:45.718Z,26.53
2018-07-21T11:49:45.448Z,26.53
2018-07-21T11:50:45.452Z,26.53
2018-07-21T11:51:45.456Z,26.62
2018-07-21T11:52:45.413Z,26.72
2018-07-21T11:53:45.404Z,26.73
2018-07-21T11:54:45.397Z,26.05
2018-07-21T11:55:45.386Z,26.73
2018-07-21T11:56:45.558Z,25.95
2018-07-21T11:57:45.921Z,26.34
2018-07-21T11:58:45.358Z,26.73
2018-07-21T11:59:45.412Z,25.96
2018-07-21T12:00:45.329Z,26.34
2018-07-21T12:01:45.372Z,26.93
2018-07-21T12:02:45.316Z,25.85
2018-07-21T12:03:45.291Z,25.87
2018-07-21T12:04:45.286Z,26.45
2018-07-21T12:05:45.344Z,27.04
2018-07-21T12:06:45.260Z,26.67
2018-07-21T12:07:45.267Z,27.15
2018-07-21T12:08:45.246Z,26.96
2018-07-21T12:09:45.228Z,27.15
2018-07-21T12:10:45.219Z,27.64
2018-07-21T12:11:45.216Z,27.74
2018-07-21T12:12:45.203Z,27.45
2018-07-21T12:13:45.195Z,27.55
2018-07-21T12:14:45.202Z,27.56
2018-07-21T12:15:45.161Z,28.03
2018-07-21T12:16:45.151Z,27.84
2018-07-21T12:17:45.150Z,27.74
2018-07-21T12:18:45.133Z,27.73
2018-07-21T12:19:45.182Z,27.44
2018-07-21T12:20:45.109Z,27.53
2018-07-21T12:21:45.097Z,27.34
2018-07-21T12:22:45.126Z,26.84
2018-07-21T12:23:45.129Z,26.86
2018-07-21T12:24:45.111Z,27.14
2018-07-21T12:25:45.054Z,26.65
2018-07-21T12:26:45.078Z,27.24
2018-07-21T12:27:45.091Z,27.24
2018-07-21T12:28:45.037Z,27.04
2018-07-21T12:29:45.007Z,27.44
2018-07-21T12:30:44.999Z,27.04
2018-07-21T12:31:44.986Z,26.83
2018-07-21T12:32:44.988Z,26.64
2018-07-21T12:33:45.022Z,26.64
2018-07-21T12:34:44.953Z,27.23
2018-07-21T12:35:44.955Z,26.93
2018-07-21T12:36:45.069Z,26.64
2018-07-21T12:37:44.933Z,26.82
2018-07-21T12:38:44.915Z,27.01
2018-07-21T12:39:44.898Z,26.90
2018-07-21T12:40:44.887Z,26.31
2018-07-21T12:41:44.876Z,26.60
2018-07-21T12:42:44.877Z,26.40
2018-07-21T12:43:44.853Z,26.31
2018-07-21T12:44:44.850Z,25.83
2018-07-21T12:45:44.835Z,26.32
2018-07-21T12:46:44.827Z,27.01
2018-07-21T12:47:44.900Z,26.72
2018-07-21T12:48:44.805Z,26.92
2018-07-21T12:49:44.797Z,26.51
2018-07-21T12:50:44.781Z,26.61
2018-07-21T12:51:44.774Z,27.09
2018-07-21T12:52:44.770Z,26.11